createdAt,value
2023-01-07T00:01:09.546Z,3.38
2023-01-07T00:03:36.720Z,3.08
2023-01-07T00:06:04.570Z,2.78
2023-01-07T00:08:32.417Z,3.00
2023-01-07T00:11:02.721Z,3.72
2023-01-07T00:13:29.658Z,3.80
2023-01-07T00:15:59.755Z,2.85
2023-01-07T00:18:26.776Z,3.70
2023-01-07T00:20:56.618Z,3.13
2023-01-07T00:23:24.567Z,3.25
2023-01-07T00:25:51.769Z,3.17
2023-01-07T00:28:18.783Z,3.15
2023-01-07T00:30:45.436Z,3.10
2023-01-07T00:33:14.555Z,3.78
2023-01-07T00:35:41.409Z,3.28
2023-01-07T00:38:08.337Z,3.13
2023-01-07T00:40:35.090Z,3.75
2023-01-07T00:43:02.025Z,3.17
2023-01-07T00:45:31.512Z,3.53
2023-01-07T00:47:59.035Z,3.03
2023-01-07T00:50:31.452Z,3.50
2023-01-07T00:52:58.377Z,3.47
2023-01-07T00:55:25.855Z,3.00
2023-01-07T00:57:53.038Z,3.60
2023-01-07T01:00:20.642Z,3.13
2023-01-07T01:02:48.095Z,3.72
2023-01-07T01:05:15.003Z,3.13
2023-01-07T01:07:42.115Z,3.05
2023-01-07T01:10:10.091Z,3.17
2023-01-07T01:12:36.859Z,2.90
2023-01-07T01:15:04.870Z,2.78
2023-01-07T01:17:31.754Z,2.83
2023-01-07T01:19:58.791Z,2.97
2023-01-07T01:22:25.658Z,2.90
2023-01-07T01:24:52.229Z,2.97
2023-01-07T01:27:19.281Z,3.05
2023-01-07T01:29:46.197Z,2.72
2023-01-07T01:32:13.673Z,2.80
2023-01-07T01:34:43.032Z,3.33
2023-01-07T01:37:09.959Z,3.10
2023-01-07T01:39:37.443Z,3.17
2023-01-07T01:42:05.294Z,3.05
2023-01-07T01:44:40.140Z,3.30
2023-01-07T01:47:33.237Z,2.72
2023-01-07T01:50:02.455Z,3.00
2023-01-07T01:52:48.785Z,3.00
2023-01-07T01:55:17.432Z,3.03
2023-01-07T01:57:46.684Z,2.90
2023-01-07T02:00:14.196Z,2.67
2023-01-07T02:02:45.945Z,2.60
2023-01-07T02:05:13.393Z,2.85
2023-01-07T02:07:39.970Z,3.58
2023-01-07T02:10:12.375Z,2.35
2023-01-07T02:12:44.853Z,3.17
2023-01-07T02:15:27.030Z,2.65
2023-01-07T02:17:59.632Z,3.58
2023-01-07T02:20:48.049Z,3.55
2023-01-07T02:23:20.457Z,2.58
2023-01-07T02:25:59.026Z,2.95
2023-01-07T02:28:37.631Z,2.25
2023-01-07T02:31:19.686Z,3.13
2023-01-07T02:33:46.390Z,3.90
2023-01-07T02:36:31.460Z,2.75
2023-01-07T02:39:09.256Z,3.00
2023-01-07T02:41:39.103Z,2.90
2023-01-07T02:44:32.384Z,2.75
2023-01-07T02:47:14.259Z,4.03
2023-01-07T02:49:41.601Z,3.20
2023-01-07T02:52:17.002Z,3.25
2023-01-07T02:54:44.358Z,3.47
2023-01-07T02:57:11.384Z,3.28
2023-01-07T02:59:44.170Z,3.25
2023-01-07T03:02:27.329Z,2.72
2023-01-07T03:05:05.235Z,3.83
2023-01-07T03:07:38.437Z,3.75
2023-01-07T03:10:17.750Z,3.40
2023-01-07T03:12:44.682Z,3.00
2023-01-07T03:15:14.262Z,3.45
2023-01-07T03:18:13.467Z,3.75
2023-01-07T03:20:41.611Z,2.95
2023-01-07T03:23:09.455Z,3.58
2023-01-07T03:25:39.159Z,3.25
2023-01-07T03:28:07.405Z,2.90
2023-01-07T03:30:34.179Z,3.15
2023-01-07T03:33:03.749Z,5.57
2023-01-07T03:35:32.072Z,4.85
2023-01-07T03:38:02.780Z,3.63
2023-01-07T03:40:31.381Z,3.00
2023-01-07T03:42:59.389Z,3.30
2023-01-07T03:45:27.413Z,3.20
2023-01-07T03:47:57.315Z,3.10
2023-01-07T03:50:28.623Z,3.20
2023-01-07T03:52:56.077Z,3.30
2023-01-07T03:55:24.039Z,3.70
2023-01-07T03:57:53.950Z,3.67
2023-01-07T04:00:20.728Z,4.22
2023-01-07T04:02:55.011Z,3.63
2023-01-07T04:05:26.704Z,3.42
2023-01-07T04:07:53.522Z,3.70
2023-01-07T04:10:23.875Z,3.65
2023-01-07T04:12:51.912Z,3.60
2023-01-07T04:15:18.736Z,3.70
2023-01-07T04:17:45.438Z,3.88
2023-01-07T04:20:12.474Z,3.50
2023-01-07T04:22:39.284Z,4.32
2023-01-07T04:25:08.547Z,4.03
2023-01-07T04:27:35.745Z,4.30
2023-01-07T04:30:02.918Z,4.13
2023-01-07T04:32:33.845Z,3.63
2023-01-07T04:35:00.768Z,3.80
2023-01-07T04:37:29.336Z,4.03
2023-01-07T04:39:56.357Z,3.58
2023-01-07T04:42:23.423Z,3.90
2023-01-07T04:44:50.401Z,3.90
2023-01-07T04:47:17.020Z,3.90
2023-01-07T04:49:44.775Z,4.35
2023-01-07T04:52:11.346Z,4.20
2023-01-07T04:54:39.188Z,5.50
2023-01-07T04:57:06.033Z,5.05
2023-01-07T04:59:32.866Z,4.75
2023-01-07T05:02:01.782Z,4.57
2023-01-07T05:04:29.204Z,4.13
2023-01-07T05:06:55.975Z,4.60
2023-01-07T05:09:24.602Z,5.15
2023-01-07T05:11:51.342Z,5.13
2023-01-07T05:14:18.806Z,4.50
2023-01-07T05:16:47.978Z,5.10
2023-01-07T05:19:14.619Z,4.78
2023-01-07T05:21:46.057Z,4.65
2023-01-07T05:24:12.977Z,4.53
2023-01-07T05:26:39.970Z,4.35
2023-01-07T05:29:06.694Z,4.47
2023-01-07T05:31:33.793Z,4.07
2023-01-07T05:34:00.438Z,4.10
2023-01-07T05:36:28.776Z,4.20
2023-01-07T05:38:56.053Z,4.10
2023-01-07T05:41:22.751Z,4.28
2023-01-07T05:43:50.482Z,4.47
2023-01-07T05:46:17.269Z,3.85
2023-01-07T05:48:44.053Z,3.60
2023-01-07T05:51:10.616Z,3.85
2023-01-07T05:53:37.275Z,3.65
2023-01-07T05:56:04.053Z,3.35
2023-01-07T05:58:30.776Z,3.25
2023-01-07T06:00:57.505Z,3.35
2023-01-07T06:03:24.478Z,3.20
2023-01-07T06:05:51.600Z,3.17
2023-01-07T06:08:18.207Z,3.10
2023-01-07T06:10:44.843Z,2.83
2023-01-07T06:13:11.455Z,2.88
2023-01-07T06:15:38.165Z,2.85
2023-01-07T06:18:04.881Z,3.33
2023-01-07T06:20:34.839Z,2.30
2023-01-07T06:23:05.369Z,2.60
2023-01-07T06:25:32.141Z,2.50
2023-01-07T06:27:58.989Z,2.67
2023-01-07T06:30:26.076Z,2.30
2023-01-07T06:32:53.846Z,2.58
2023-01-07T06:35:22.998Z,2.65
2023-01-07T06:37:49.849Z,2.15
2023-01-07T06:40:16.789Z,2.17
2023-01-07T06:42:43.408Z,1.98
2023-01-07T06:45:13.581Z,1.98
2023-01-07T06:47:40.478Z,1.90
2023-01-07T06:50:07.562Z,1.77
2023-01-07T06:52:34.272Z,1.98
2023-01-07T06:55:00.904Z,2.30
2023-01-07T06:57:27.636Z,1.80
2023-01-07T06:59:54.201Z,1.88
2023-01-07T07:02:22.317Z,1.90
2023-01-07T07:04:49.105Z,1.92
2023-01-07T07:07:16.453Z,1.90
2023-01-07T07:09:43.230Z,1.85
2023-01-07T07:12:10.232Z,1.50
2023-01-07T07:14:36.975Z,1.27
2023-01-07T07:17:05.729Z,1.52
2023-01-07T07:19:32.313Z,1.40
2023-01-07T07:21:58.917Z,1.80
2023-01-07T07:24:25.609Z,1.60
2023-01-07T07:26:52.213Z,1.40
2023-01-07T07:29:21.025Z,1.13
2023-01-07T07:31:48.508Z,1.65
2023-01-07T07:34:15.001Z,1.40
2023-01-07T07:36:41.854Z,1.13
2023-01-07T07:39:08.420Z,1.55
2023-01-07T07:41:35.147Z,1.50
2023-01-07T07:44:07.101Z,1.85
2023-01-07T07:46:33.903Z,1.27
2023-01-07T07:49:00.625Z,2.10
2023-01-07T07:51:27.471Z,1.48
2023-01-07T07:53:54.076Z,1.30
2023-01-07T07:56:20.767Z,1.48
2023-01-07T07:58:47.515Z,1.40
2023-01-07T08:01:14.257Z,1.25
2023-01-07T08:03:41.258Z,1.80
2023-01-07T08:06:08.159Z,1.85
2023-01-07T08:08:35.851Z,1.20
2023-01-07T08:11:03.166Z,1.60
2023-01-07T08:13:30.508Z,1.50
2023-01-07T08:15:57.297Z,1.35
2023-01-07T08:18:24.027Z,1.42
2023-01-07T08:20:50.938Z,1.27
2023-01-07T08:23:17.556Z,1.10
2023-01-07T08:25:44.182Z,1.40
2023-01-07T08:28:11.143Z,1.20
2023-01-07T08:30:38.082Z,1.38
2023-01-07T08:33:08.579Z,1.38
2023-01-07T08:35:35.563Z,1.38
2023-01-07T08:38:06.362Z,2.60
2023-01-07T08:40:33.348Z,1.30
2023-01-07T08:43:00.656Z,1.10
2023-01-07T08:45:27.687Z,1.40
2023-01-07T08:47:57.738Z,1.30
2023-01-07T08:50:25.596Z,1.50
2023-01-07T08:52:52.309Z,1.45
2023-01-07T08:55:19.128Z,1.27
2023-01-07T08:57:47.639Z,1.23
2023-01-07T09:00:16.344Z,1.17
2023-01-07T09:02:43.196Z,1.48
2023-01-07T09:05:13.462Z,1.83
2023-01-07T09:07:40.491Z,1.67
2023-01-07T09:10:07.376Z,1.30
2023-01-07T09:12:34.433Z,1.27
2023-01-07T09:15:00.947Z,1.30
2023-01-07T09:17:29.540Z,1.30
2023-01-07T09:19:56.368Z,1.33
2023-01-07T09:22:23.166Z,1.00
2023-01-07T09:24:49.944Z,1.17
2023-01-07T09:27:17.820Z,1.13
2023-01-07T09:29:44.540Z,1.75
2023-01-07T09:32:11.238Z,1.45
2023-01-07T09:34:38.654Z,1.05
2023-01-07T09:37:06.119Z,1.60
2023-01-07T09:39:32.796Z,1.75
2023-01-07T09:42:12.876Z,1.15
2023-01-07T09:44:49.236Z,1.30
2023-01-07T09:47:18.013Z,1.42
2023-01-07T09:49:51.041Z,1.30
2023-01-07T09:52:19.531Z,1.35
2023-01-07T09:54:48.907Z,1.15
2023-01-07T09:57:17.119Z,1.23
2023-01-07T09:59:44.842Z,2.58
2023-01-07T10:02:21.112Z,1.10
2023-01-07T10:04:53.988Z,1.10
2023-01-07T10:07:47.226Z,1.60
2023-01-07T10:10:18.049Z,1.27
2023-01-07T10:12:44.666Z,1.27
2023-01-07T10:15:14.567Z,1.67
2023-01-07T10:17:47.183Z,1.30
2023-01-07T10:20:16.651Z,1.13
2023-01-07T10:22:55.459Z,1.30
2023-01-07T10:25:25.352Z,1.30
2023-01-07T10:27:53.470Z,1.50
2023-01-07T10:30:23.723Z,1.42
2023-01-07T10:32:52.341Z,1.50
2023-01-07T10:35:21.464Z,1.73
2023-01-07T10:37:48.465Z,1.20
2023-01-07T10:40:21.014Z,1.45
2023-01-07T10:42:47.662Z,1.73
2023-01-07T10:45:40.199Z,1.73
2023-01-07T10:48:08.409Z,1.35
2023-01-07T10:50:44.065Z,1.70
2023-01-07T10:53:31.137Z,1.17
2023-01-07T10:56:03.891Z,2.20
2023-01-07T10:58:36.503Z,1.88
2023-01-07T11:01:03.299Z,1.50
2023-01-07T11:03:30.003Z,1.65
2023-01-07T11:06:02.381Z,1.65
2023-01-07T11:08:30.735Z,1.40
2023-01-07T11:10:58.790Z,1.67
2023-01-07T11:13:27.433Z,1.50
2023-01-07T11:16:01.082Z,1.67
2023-01-07T11:18:34.153Z,1.58
2023-01-07T11:21:01.479Z,1.50
2023-01-07T11:23:32.382Z,2.00
2023-01-07T11:26:32.099Z,2.30
2023-01-07T11:29:13.828Z,1.70
2023-01-07T11:31:46.780Z,1.95
2023-01-07T11:34:18.360Z,1.60
2023-01-07T11:36:45.113Z,1.73
2023-01-07T11:39:18.316Z,1.80
2023-01-07T11:41:55.940Z,1.73
2023-01-07T11:44:22.920Z,1.77
2023-01-07T11:46:49.916Z,1.67
2023-01-07T11:49:39.327Z,1.75
2023-01-07T11:52:06.121Z,1.80
2023-01-07T11:54:33.485Z,1.52
2023-01-07T11:57:13.792Z,2.42
2023-01-07T11:59:40.467Z,1.23
2023-01-07T12:02:23.551Z,1.38
2023-01-07T12:04:50.434Z,1.48
2023-01-07T12:07:17.796Z,1.60
2023-01-07T12:09:45.552Z,1.55
2023-01-07T12:12:34.825Z,1.98
2023-01-07T12:15:04.077Z,1.58
2023-01-07T12:17:33.116Z,1.70
2023-01-07T12:20:08.832Z,1.60
2023-01-07T12:23:12.157Z,2.25
2023-01-07T12:25:44.109Z,2.30
2023-01-07T12:28:18.161Z,1.30
2023-01-07T12:31:03.660Z,1.73
2023-01-07T12:33:30.458Z,1.85
2023-01-07T12:35:58.433Z,1.48
2023-01-07T12:38:36.633Z,1.58
2023-01-07T12:41:10.904Z,1.70
2023-01-07T12:43:40.181Z,1.98
2023-01-07T12:46:13.112Z,1.55
2023-01-07T12:48:58.290Z,1.60
2023-01-07T12:51:28.582Z,2.00
2023-01-07T12:53:58.338Z,2.25
2023-01-07T12:56:32.360Z,1.75
2023-01-07T12:59:01.484Z,1.92
2023-01-07T13:01:42.858Z,1.90
2023-01-07T13:04:09.736Z,1.70
2023-01-07T13:06:45.103Z,1.60
2023-01-07T13:09:30.572Z,1.52
2023-01-07T13:12:41.039Z,2.15
2023-01-07T13:15:11.634Z,2.13
2023-01-07T13:17:38.431Z,1.40
2023-01-07T13:20:08.025Z,1.83
2023-01-07T13:22:42.282Z,1.83
2023-01-07T13:25:30.305Z,1.80
2023-01-07T13:28:15.802Z,1.42
2023-01-07T13:30:54.480Z,1.30
2023-01-07T13:33:29.578Z,1.15
2023-01-07T13:35:56.520Z,1.50
2023-01-07T13:38:46.034Z,1.90
2023-01-07T13:41:17.456Z,1.50
2023-01-07T13:44:07.322Z,1.70
2023-01-07T13:46:36.370Z,1.73
2023-01-07T13:49:03.353Z,1.40
2023-01-07T13:51:32.771Z,1.70
2023-01-07T13:53:59.712Z,1.50
2023-01-07T13:56:26.476Z,1.92
2023-01-07T13:58:56.720Z,1.88
2023-01-07T14:01:27.939Z,1.48
2023-01-07T14:03:58.836Z,1.77
2023-01-07T14:06:39.676Z,1.73
2023-01-07T14:09:06.411Z,1.67
2023-01-07T14:11:32.932Z,1.75
2023-01-07T14:13:59.680Z,1.50
2023-01-07T14:16:28.757Z,1.98
2023-01-07T14:18:55.352Z,1.60
2023-01-07T14:21:40.540Z,2.13
2023-01-07T14:26:39.584Z,2.10
2023-01-07T14:29:08.990Z,2.17
2023-01-07T14:31:35.798Z,2.15
2023-01-07T14:34:08.360Z,1.90
2023-01-07T14:36:53.557Z,2.03
2023-01-07T14:39:37.012Z,1.70
2023-01-07T14:42:18.981Z,2.38
2023-01-07T14:44:49.670Z,1.90
2023-01-07T14:47:35.132Z,2.17
2023-01-07T14:50:07.782Z,1.98
2023-01-07T14:52:49.194Z,2.40
2023-01-07T14:55:34.394Z,1.80
2023-01-07T14:58:13.061Z,2.03
2023-01-07T15:00:59.593Z,1.88
2023-01-07T15:03:44.851Z,2.40
2023-01-07T15:09:03.035Z,1.70
2023-01-07T15:11:49.082Z,1.92
2023-01-07T15:14:43.954Z,2.33
2023-01-07T15:17:12.835Z,2.08
2023-01-07T15:19:39.893Z,2.72
2023-01-07T15:22:25.101Z,1.70
2023-01-07T15:27:25.259Z,1.90
2023-01-07T15:30:06.979Z,2.10
2023-01-07T15:32:43.329Z,1.90
2023-01-07T15:35:17.693Z,1.80
2023-01-07T15:37:50.247Z,1.77
2023-01-07T15:40:19.524Z,2.13
2023-01-07T15:42:47.199Z,2.30
2023-01-07T15:45:16.179Z,2.35
2023-01-07T15:47:43.523Z,2.22
2023-01-07T15:50:18.899Z,2.08
2023-01-07T15:52:53.610Z,1.80
2023-01-07T15:55:27.635Z,2.30
2023-01-07T15:57:58.959Z,2.60
2023-01-07T16:00:25.903Z,2.25
2023-01-07T16:02:52.922Z,2.35
2023-01-07T16:05:20.335Z,2.00
2023-01-07T16:07:55.394Z,2.55
2023-01-07T16:12:49.655Z,2.28
2023-01-07T16:15:22.499Z,2.50
2023-01-07T16:17:50.146Z,2.05
2023-01-07T16:20:23.343Z,3.00
2023-01-07T16:22:50.545Z,2.75
2023-01-07T16:25:22.276Z,2.30
2023-01-07T16:27:50.967Z,2.20
2023-01-07T16:30:18.766Z,2.20
2023-01-07T16:32:49.420Z,2.33
2023-01-07T16:35:18.805Z,2.13
2023-01-07T16:37:45.873Z,2.20
2023-01-07T16:40:17.507Z,2.15
2023-01-07T16:42:47.136Z,2.70
2023-01-07T16:45:23.600Z,2.65
2023-01-07T16:48:00.954Z,2.42
2023-01-07T16:50:30.743Z,2.50
2023-01-07T16:52:57.488Z,2.95
2023-01-07T16:55:45.267Z,2.88
2023-01-07T16:58:19.010Z,2.67
2023-01-07T17:00:49.535Z,2.33
2023-01-07T17:03:18.817Z,2.58
2023-01-07T17:05:56.907Z,2.78
2023-01-07T17:08:23.522Z,2.60
2023-01-07T17:10:56.918Z,2.72
2023-01-07T17:13:23.753Z,3.15
2023-01-07T17:15:50.508Z,3.20
2023-01-07T17:18:17.120Z,2.55
2023-01-07T17:20:44.691Z,2.60
2023-01-07T17:23:26.923Z,3.38
2023-01-07T17:25:57.959Z,3.22
2023-01-07T17:28:25.678Z,2.70
2023-01-07T17:30:52.573Z,2.70
2023-01-07T17:33:23.776Z,2.97
2023-01-07T17:35:51.101Z,3.10
2023-01-07T17:38:18.066Z,2.72
2023-01-07T17:40:45.645Z,3.05
2023-01-07T17:43:33.937Z,6.43
2023-01-07T17:46:04.122Z,4.00
2023-01-07T17:48:32.232Z,3.10
2023-01-07T17:51:03.263Z,3.10
2023-01-07T17:53:31.116Z,3.10
2023-01-07T17:55:58.424Z,3.58
2023-01-07T17:58:29.503Z,2.78
2023-01-07T18:00:57.568Z,3.45
2023-01-07T18:03:24.558Z,3.58
2023-01-07T18:05:54.479Z,3.10
2023-01-07T18:08:21.366Z,2.90
2023-01-07T18:11:07.014Z,2.90
2023-01-07T18:13:33.989Z,3.03
2023-01-07T18:16:00.719Z,3.03
2023-01-07T18:18:30.482Z,3.20
2023-01-07T18:20:57.758Z,3.50
2023-01-07T18:23:24.742Z,3.35
2023-01-07T18:25:51.815Z,3.70
2023-01-07T18:28:18.630Z,3.10
2023-01-07T18:30:45.477Z,3.90
2023-01-07T18:33:12.808Z,3.45
2023-01-07T18:35:42.761Z,3.50
2023-01-07T18:38:12.798Z,3.65
2023-01-07T18:40:39.499Z,3.70
2023-01-07T18:43:06.021Z,4.78
2023-01-07T18:45:33.026Z,3.65
2023-01-07T18:48:00.508Z,3.42
2023-01-07T18:50:27.393Z,3.67
2023-01-07T18:52:54.491Z,3.30
2023-01-07T18:55:21.170Z,3.65
2023-01-07T18:57:48.046Z,3.65
2023-01-07T19:00:15.235Z,4.10
2023-01-07T19:02:41.780Z,4.55
2023-01-07T19:05:11.995Z,4.18
2023-01-07T19:07:38.692Z,4.32
2023-01-07T19:10:05.614Z,4.35
2023-01-07T19:12:32.765Z,4.65
2023-01-07T19:15:02.030Z,4.13
2023-01-07T19:17:28.766Z,4.03
2023-01-07T19:19:55.249Z,4.10
2023-01-07T19:22:22.097Z,4.38
2023-01-07T19:24:48.826Z,4.43
2023-01-07T19:27:15.686Z,4.55
2023-01-07T19:29:42.469Z,3.90
2023-01-07T19:32:30.943Z,4.53
2023-01-07T19:34:57.820Z,5.10
2023-01-07T19:37:50.166Z,4.78
2023-01-07T19:40:17.527Z,4.50
2023-01-07T19:42:44.254Z,4.18
2023-01-07T19:45:11.136Z,3.70
2023-01-07T19:47:39.416Z,3.30
2023-01-07T19:50:06.840Z,4.25
2023-01-07T19:52:34.252Z,3.80
2023-01-07T19:55:01.455Z,4.00
2023-01-07T19:57:29.811Z,3.75
2023-01-07T19:59:56.516Z,3.70
2023-01-07T20:02:28.958Z,3.75
2023-01-07T20:04:55.880Z,3.63
2023-01-07T20:07:25.647Z,3.38
2023-01-07T20:09:52.741Z,3.65
2023-01-07T20:15:42.372Z,3.90
2023-01-07T20:18:27.837Z,3.90
2023-01-07T20:21:25.167Z,3.60
2023-01-07T20:24:25.558Z,3.90
2023-01-07T20:30:01.782Z,3.72
2023-01-07T20:32:36.840Z,4.10
2023-01-07T20:35:05.763Z,4.65
2023-01-07T20:37:38.172Z,3.60
2023-01-07T20:40:05.241Z,3.88
2023-01-07T20:42:36.526Z,3.13
2023-01-07T20:45:03.674Z,3.65
2023-01-07T20:47:36.548Z,3.70
2023-01-07T20:50:06.552Z,3.67
2023-01-07T20:52:33.283Z,3.47
2023-01-07T20:55:02.114Z,4.90
2023-01-07T20:57:32.348Z,4.40
2023-01-07T21:00:21.164Z,3.28
2023-01-07T21:02:49.078Z,3.35
2023-01-07T21:05:24.642Z,3.50
2023-01-07T21:07:59.240Z,3.40
2023-01-07T21:10:29.340Z,3.40
2023-01-07T21:13:09.124Z,4.82
2023-01-07T21:15:44.213Z,3.22
2023-01-07T21:18:14.211Z,3.53
2023-01-07T21:23:36.461Z,3.50
2023-01-07T21:28:59.743Z,2.03
2023-01-07T21:34:36.639Z,2.90
2023-01-07T21:37:08.752Z,4.28
2023-01-07T21:40:02.557Z,1.40
2023-01-07T21:42:32.944Z,1.85
2023-01-07T21:45:01.961Z,1.23
2023-01-07T21:50:52.776Z,2.20
2023-01-07T21:53:21.920Z,1.50
2023-01-07T21:55:56.347Z,1.40
2023-01-07T21:58:28.763Z,1.98
2023-01-07T22:00:55.812Z,2.08
2023-01-07T22:03:31.664Z,1.77
2023-01-07T22:06:00.836Z,1.63
2023-01-07T22:08:30.609Z,1.63
2023-01-07T22:11:37.050Z,1.60
2023-01-07T22:20:37.410Z,1.38
2023-01-07T22:23:31.592Z,1.20
2023-01-07T22:26:05.594Z,1.20
2023-01-07T22:31:28.769Z,1.30
2023-01-07T22:33:58.601Z,1.17
2023-01-07T22:36:25.236Z,1.75
2023-01-07T22:38:52.863Z,1.35
2023-01-07T22:41:19.628Z,1.58
2023-01-07T22:43:46.221Z,1.60
2023-01-07T22:46:17.802Z,1.77
2023-01-07T22:48:44.671Z,1.92
2023-01-07T22:51:18.194Z,1.85
2023-01-07T22:53:45.403Z,2.10
2023-01-07T22:56:12.637Z,2.05
2023-01-07T22:58:39.961Z,1.95
2023-01-07T23:01:08.241Z,1.85
2023-01-07T23:03:35.423Z,2.25
2023-01-07T23:06:02.384Z,2.30
2023-01-07T23:08:30.378Z,2.47
2023-01-07T23:10:57.059Z,2.03
2023-01-07T23:13:23.938Z,1.90
2023-01-07T23:15:53.056Z,2.03
2023-01-07T23:18:19.839Z,2.08
2023-01-07T23:20:46.504Z,2.35
2023-01-07T23:23:13.493Z,1.88
2023-01-07T23:25:46.894Z,2.03
2023-01-07T23:28:14.057Z,2.15
2023-01-07T23:30:40.823Z,2.50
2023-01-07T23:33:07.744Z,2.55
2023-01-07T23:35:34.767Z,2.22
2023-01-07T23:38:01.682Z,2.15
2023-01-07T23:40:28.356Z,2.92
2023-01-07T23:43:27.151Z,2.50
2023-01-07T23:45:56.302Z,2.33
2023-01-07T23:48:23.083Z,1.98
2023-01-07T23:50:49.797Z,2.42
2023-01-07T23:53:16.357Z,2.10
2023-01-07T23:55:50.110Z,1.73
2023-01-07T23:58:17.071Z,2.17
